TAP1542 GVNP-LPPT
Flight info
| Callsign | TAP1542 |
|---|---|
| Flight time | N/A |
| Altitude | 35000 |
| Route | AMDER1N CVS UN873 IPERA N873 ODEGI/N0438F360 N873 GDV N858 VASTO DCT BAROK DCT VATZI |
| Aircraft | A21N/M-SDE2E3FGHIRWXY/LB1 |
Departure
| Time | 2026-04-20 13:54 |
|---|---|
| Airport | Nelson Mandela International Airport (GVNP) |
Arrival
| Time | N/A |
|---|---|
| Airport | Lisbon Humberto Delgado Airport (LPPT) |
| Time | Latitude | Longitude | Altitude | Speed | Heading |
|---|---|---|---|---|---|
| 2026-04-20 13:23 | 14.94526 | -23.48544 | 349 ft | 0 kts | 291° |
| 2026-04-20 13:46 | 14.94520 | -23.48525 | 356 ft | 4 kts | 278° |
| 2026-04-20 13:46 | 14.94521 | -23.48498 | 356 ft | 4 kts | 255° |
| 2026-04-20 13:46 | 14.94526 | -23.48480 | 356 ft | 1 kts | 251° |
| 2026-04-20 13:47 | 14.94527 | -23.48477 | 355 ft | 0 kts | 251° |
| 2026-04-20 13:49 | 14.94519 | -23.48482 | 353 ft | 3 kts | 197° |
| 2026-04-20 13:49 | 14.94506 | -23.48486 | 355 ft | 7 kts | 197° |
| 2026-04-20 13:49 | 14.94493 | -23.48490 | 348 ft | 7 kts | 198° |
| 2026-04-20 13:50 | 14.94442 | -23.48509 | 347 ft | 9 kts | 201° |
| 2026-04-20 13:50 | 14.94404 | -23.48518 | 353 ft | 9 kts | 175° |
| 2026-04-20 13:50 | 14.94394 | -23.48516 | 350 ft | 9 kts | 162° |
| 2026-04-20 13:50 | 14.94355 | -23.48474 | 351 ft | 8 kts | 114° |
| 2026-04-20 13:51 | 14.94329 | -23.48425 | 352 ft | 9 kts | 136° |
| 2026-04-20 13:51 | 14.94249 | -23.48416 | 344 ft | 15 kts | 196° |
| 2026-04-20 13:51 | 14.94131 | -23.48462 | 350 ft | 20 kts | 201° |
| 2026-04-20 13:51 | 14.93986 | -23.48522 | 350 ft | 25 kts | 202° |
| 2026-04-20 13:52 | 14.93813 | -23.48594 | 345 ft | 28 kts | 202° |
| 2026-04-20 13:52 | 14.93636 | -23.48667 | 336 ft | 27 kts | 201° |
| 2026-04-20 13:52 | 14.93455 | -23.48741 | 332 ft | 28 kts | 203° |
| 2026-04-20 13:52 | 14.93300 | -23.48818 | 334 ft | 14 kts | 227° |
| 2026-04-20 13:53 | 14.93265 | -23.48847 | 328 ft | 2 kts | 185° |
| 2026-04-20 13:53 | 14.93258 | -23.48833 | 330 ft | 3 kts | 79° |
| 2026-04-20 13:53 | 14.93268 | -23.48822 | 329 ft | 1 kts | 28° |
| 2026-04-20 13:53 | 14.93319 | -23.48800 | 333 ft | 27 kts | 22° |
| 2026-04-20 13:54 | 14.93676 | -23.48651 | 350 ft | 84 kts | 21° |
| 2026-04-20 13:54 | 14.94412 | -23.48348 | 357 ft | 142 kts | 21° |
| 2026-04-20 13:54 | 14.95360 | -23.47956 | 810 ft | 147 kts | 25° |
| 2026-04-20 13:54 | 14.96316 | -23.47501 | 1307 ft | 156 kts | 24° |
| 2026-04-20 13:55 | 14.97328 | -23.47036 | 1773 ft | 164 kts | 23° |
| 2026-04-20 13:55 | 14.98402 | -23.46549 | 2239 ft | 172 kts | 22° |
| 2026-04-20 13:55 | 14.99521 | -23.46067 | 2734 ft | 177 kts | 21° |
| 2026-04-20 13:55 | 15.00659 | -23.45558 | 3253 ft | 179 kts | 21° |
| 2026-04-20 13:56 | 15.01801 | -23.45063 | 3735 ft | 181 kts | 20° |
| 2026-04-20 13:56 | 15.02494 | -23.44739 | 4076 ft | 181 kts | 21° |
| 2026-04-20 13:56 | 15.03563 | -23.44314 | 4313 ft | 198 kts | 17° |
| 2026-04-20 13:57 | 15.04945 | -23.43823 | 4414 ft | 223 kts | 17° |
| 2026-04-20 13:57 | 15.06503 | -23.43248 | 4501 ft | 250 kts | 18° |
| 2026-04-20 13:57 | 15.08222 | -23.42577 | 4610 ft | 277 kts | 18° |
| 2026-04-20 13:57 | 15.10076 | -23.41867 | 4965 ft | 288 kts | 13° |
| 2026-04-20 13:58 | 15.11987 | -23.41382 | 5666 ft | 284 kts | 9° |
| 2026-04-20 13:58 | 15.13921 | -23.40994 | 6366 ft | 284 kts | 8° |
| 2026-04-20 13:58 | 15.15888 | -23.40627 | 6835 ft | 292 kts | 7° |
| 2026-04-20 13:58 | 15.17911 | -23.40254 | 7370 ft | 297 kts | 7° |
| 2026-04-20 13:59 | 15.19946 | -23.39876 | 8017 ft | 298 kts | 8° |
| 2026-04-20 13:59 | 15.22009 | -23.39490 | 8588 ft | 304 kts | 7° |
| 2026-04-20 13:59 | 15.24099 | -23.39098 | 9202 ft | 307 kts | 8° |
| 2026-04-20 13:59 | 15.26204 | -23.38702 | 9854 ft | 309 kts | 8° |
| 2026-04-20 14:00 | 15.28361 | -23.38296 | 10257 ft | 321 kts | 8° |
| 2026-04-20 14:00 | 15.30631 | -23.37870 | 10406 ft | 341 kts | 8° |
| 2026-04-20 14:00 | 15.33030 | -23.37419 | 10524 ft | 360 kts | 8° |
| 2026-04-20 14:00 | 15.35563 | -23.36942 | 10656 ft | 376 kts | 8° |
| 2026-04-20 14:01 | 15.38157 | -23.36451 | 11085 ft | 380 kts | 8° |
| 2026-04-20 14:01 | 15.40737 | -23.35961 | 11684 ft | 380 kts | 8° |
| 2026-04-20 14:01 | 15.43347 | -23.35467 | 12214 ft | 382 kts | 8° |
| 2026-04-20 14:01 | 15.45976 | -23.34969 | 12662 ft | 387 kts | 8° |
| 2026-04-20 14:02 | 15.48635 | -23.34465 | 13166 ft | 390 kts | 8° |
| 2026-04-20 14:02 | 15.51328 | -23.33955 | 13663 ft | 393 kts | 8° |
| 2026-04-20 14:02 | 15.54031 | -23.33443 | 14160 ft | 396 kts | 8° |
| 2026-04-20 14:02 | 15.56734 | -23.32932 | 14637 ft | 398 kts | 7° |
| 2026-04-20 14:03 | 15.59450 | -23.32322 | 15167 ft | 401 kts | 12° |
| 2026-04-20 14:03 | 15.62141 | -23.31523 | 15665 ft | 404 kts | 14° |
| 2026-04-20 14:03 | 15.64843 | -23.30656 | 16166 ft | 406 kts | 14° |
| 2026-04-20 14:03 | 15.67547 | -23.29774 | 16630 ft | 408 kts | 14° |
| 2026-04-20 14:04 | 15.70276 | -23.28882 | 17095 ft | 410 kts | 14° |
| 2026-04-20 14:04 | 15.73012 | -23.27990 | 17527 ft | 412 kts | 14° |
| 2026-04-20 14:04 | 15.75712 | -23.27110 | 17941 ft | 415 kts | 14° |
| 2026-04-20 14:04 | 15.78482 | -23.26209 | 18325 ft | 417 kts | 14° |
| 2026-04-20 14:05 | 15.81261 | -23.25304 | 18676 ft | 418 kts | 14° |
| 2026-04-20 14:05 | 15.84048 | -23.24398 | 19003 ft | 420 kts | 14° |
| 2026-04-20 14:05 | 15.86845 | -23.23488 | 19323 ft | 421 kts | 13° |
| 2026-04-20 14:05 | 15.89654 | -23.22573 | 19651 ft | 423 kts | 13° |
| 2026-04-20 14:06 | 15.92425 | -23.21671 | 19978 ft | 424 kts | 13° |
| 2026-04-20 14:06 | 15.95259 | -23.20749 | 20340 ft | 426 kts | 13° |
| 2026-04-20 14:06 | 15.98081 | -23.19830 | 20727 ft | 429 kts | 13° |
| 2026-04-20 14:06 | 16.00940 | -23.18898 | 21065 ft | 430 kts | 13° |
| 2026-04-20 14:07 | 16.03815 | -23.17961 | 21408 ft | 432 kts | 13° |
| 2026-04-20 14:07 | 16.06687 | -23.17025 | 21746 ft | 433 kts | 13° |
| 2026-04-20 14:07 | 16.09568 | -23.16084 | 22085 ft | 435 kts | 13° |
| 2026-04-20 14:07 | 16.12461 | -23.15140 | 22427 ft | 437 kts | 12° |
| 2026-04-20 14:08 | 16.15367 | -23.14191 | 22777 ft | 439 kts | 12° |
| 2026-04-20 14:08 | 16.18297 | -23.13235 | 23146 ft | 441 kts | 12° |
| 2026-04-20 14:08 | 16.21231 | -23.12277 | 23559 ft | 443 kts | 12° |
| 2026-04-20 14:08 | 16.24133 | -23.11331 | 23820 ft | 445 kts | 12° |
| 2026-04-20 14:09 | 16.27093 | -23.10365 | 24099 ft | 446 kts | 12° |
| 2026-04-20 14:09 | 16.30063 | -23.09395 | 24378 ft | 447 kts | 12° |
| 2026-04-20 14:09 | 16.33036 | -23.08423 | 24663 ft | 448 kts | 12° |
| 2026-04-20 14:09 | 16.36012 | -23.07449 | 24983 ft | 449 kts | 11° |
| 2026-04-20 14:10 | 16.38984 | -23.06477 | 25275 ft | 450 kts | 11° |
| 2026-04-20 14:10 | 16.41978 | -23.05497 | 25570 ft | 450 kts | 11° |
| 2026-04-20 14:10 | 16.44960 | -23.04521 | 25842 ft | 451 kts | 11° |
| 2026-04-20 14:10 | 16.47975 | -23.03534 | 26092 ft | 452 kts | 11° |
| 2026-04-20 14:11 | 16.50974 | -23.02552 | 26342 ft | 453 kts | 10° |
| 2026-04-20 14:11 | 16.53981 | -23.01567 | 26591 ft | 454 kts | 10° |
| 2026-04-20 14:11 | 16.56972 | -23.00587 | 26827 ft | 455 kts | 10° |
| 2026-04-20 14:11 | 16.59997 | -22.99595 | 27060 ft | 455 kts | 10° |
| 2026-04-20 14:12 | 16.63026 | -22.98602 | 27280 ft | 456 kts | 10° |
| 2026-04-20 14:12 | 16.66070 | -22.97603 | 27505 ft | 457 kts | 10° |
| 2026-04-20 14:12 | 16.69096 | -22.96610 | 27712 ft | 458 kts | 9° |
| 2026-04-20 14:12 | 16.72140 | -22.95566 | 27931 ft | 462 kts | 13° |
| 2026-04-20 14:13 | 16.75083 | -22.94209 | 28119 ft | 470 kts | 18° |
| 2026-04-20 14:13 | 16.78020 | -22.92598 | 28392 ft | 472 kts | 21° |
| 2026-04-20 14:13 | 16.80837 | -22.90928 | 28761 ft | 470 kts | 22° |
| 2026-04-20 14:13 | 16.83650 | -22.89199 | 29064 ft | 469 kts | 22° |
| 2026-04-20 14:14 | 16.86469 | -22.87446 | 29312 ft | 469 kts | 22° |
| 2026-04-20 14:14 | 16.89266 | -22.85707 | 29577 ft | 468 kts | 21° |
| 2026-04-20 14:14 | 16.92061 | -22.83978 | 29864 ft | 467 kts | 21° |
| 2026-04-20 14:14 | 16.94865 | -22.82254 | 30121 ft | 465 kts | 21° |
| 2026-04-20 14:15 | 16.97653 | -22.80550 | 30308 ft | 465 kts | 21° |
| 2026-04-20 14:15 | 17.00459 | -22.78843 | 30460 ft | 466 kts | 21° |
| 2026-04-20 14:15 | 17.03268 | -22.77139 | 30625 ft | 466 kts | 20° |
| 2026-04-20 14:15 | 17.06042 | -22.75457 | 30824 ft | 466 kts | 20° |
| 2026-04-20 14:16 | 17.08845 | -22.73755 | 31046 ft | 465 kts | 20° |
| 2026-04-20 14:16 | 17.11648 | -22.72053 | 31203 ft | 466 kts | 20° |
| 2026-04-20 14:16 | 17.14443 | -22.70354 | 31350 ft | 466 kts | 20° |
| 2026-04-20 14:16 | 17.17247 | -22.68649 | 31516 ft | 467 kts | 20° |
| 2026-04-20 14:17 | 17.20048 | -22.66943 | 31704 ft | 466 kts | 20° |
| 2026-04-20 14:17 | 17.22857 | -22.65231 | 31869 ft | 466 kts | 20° |
| 2026-04-20 14:17 | 17.25661 | -22.63522 | 32064 ft | 466 kts | 20° |
| 2026-04-20 14:17 | 17.28470 | -22.61810 | 32207 ft | 467 kts | 20° |
| 2026-04-20 14:18 | 17.31264 | -22.60106 | 32375 ft | 467 kts | 20° |
| 2026-04-20 14:18 | 17.34076 | -22.58390 | 32540 ft | 467 kts | 20° |
| 2026-04-20 14:18 | 17.36884 | -22.56676 | 32709 ft | 467 kts | 20° |
| 2026-04-20 14:18 | 17.39684 | -22.54966 | 32862 ft | 467 kts | 20° |
| 2026-04-20 14:19 | 17.42486 | -22.53255 | 33021 ft | 467 kts | 20° |
| 2026-04-20 14:19 | 17.45295 | -22.51539 | 33220 ft | 466 kts | 20° |
| 2026-04-20 14:19 | 17.48092 | -22.49828 | 33423 ft | 465 kts | 20° |
| 2026-04-20 14:19 | 17.50876 | -22.48125 | 33605 ft | 464 kts | 20° |
| 2026-04-20 14:20 | 17.53676 | -22.46412 | 33725 ft | 465 kts | 20° |
| 2026-04-20 14:20 | 17.56466 | -22.44707 | 33868 ft | 466 kts | 19° |
| 2026-04-20 14:20 | 17.59277 | -22.42987 | 34021 ft | 465 kts | 19° |
| 2026-04-20 14:20 | 17.62030 | -22.41301 | 34180 ft | 464 kts | 19° |
| 2026-04-20 14:21 | 17.64818 | -22.39593 | 34304 ft | 464 kts | 19° |
| 2026-04-20 14:21 | 17.67608 | -22.37884 | 34406 ft | 464 kts | 19° |
| 2026-04-20 14:21 | 17.70408 | -22.36168 | 34511 ft | 465 kts | 19° |
| 2026-04-20 14:21 | 17.73207 | -22.34452 | 34620 ft | 465 kts | 19° |
| 2026-04-20 14:22 | 17.75999 | -22.32740 | 34755 ft | 464 kts | 19° |
| 2026-04-20 14:22 | 17.78771 | -22.31036 | 34881 ft | 464 kts | 19° |
| 2026-04-20 14:22 | 17.84379 | -22.27589 | 34958 ft | 466 kts | 19° |
| 2026-04-20 14:23 | 17.89973 | -22.24150 | 34958 ft | 467 kts | 19° |
| 2026-04-20 14:23 | 17.95557 | -22.20721 | 34961 ft | 467 kts | 19° |
| 2026-04-20 14:24 | 18.01168 | -22.17272 | 34959 ft | 467 kts | 19° |
| 2026-04-20 14:24 | 18.06781 | -22.13816 | 34958 ft | 467 kts | 19° |
| 2026-04-20 14:25 | 18.12384 | -22.10363 | 34961 ft | 467 kts | 19° |
| 2026-04-20 14:25 | 18.18001 | -22.06899 | 34961 ft | 467 kts | 19° |
| 2026-04-20 14:26 | 18.23585 | -22.03453 | 34959 ft | 467 kts | 19° |
| 2026-04-20 14:26 | 18.29172 | -22.00002 | 34958 ft | 466 kts | 19° |
| 2026-04-20 14:27 | 18.34771 | -21.96541 | 34957 ft | 466 kts | 19° |
| 2026-04-20 14:27 | 18.40367 | -21.93080 | 34958 ft | 466 kts | 19° |
| 2026-04-20 14:28 | 18.45964 | -21.89615 | 34958 ft | 466 kts | 19° |
| 2026-04-20 14:28 | 18.50608 | -21.86738 | 34962 ft | 466 kts | 19° |
| 2026-04-20 14:29 | 18.56200 | -21.83271 | 34960 ft | 466 kts | 19° |
| 2026-04-20 14:29 | 18.61778 | -21.79811 | 34959 ft | 465 kts | 19° |
| 2026-04-20 14:30 | 18.67360 | -21.76345 | 34959 ft | 465 kts | 18° |
| 2026-04-20 14:30 | 18.72909 | -21.72897 | 34961 ft | 465 kts | 18° |
| 2026-04-20 14:31 | 18.78481 | -21.69432 | 34958 ft | 465 kts | 19° |
| 2026-04-20 14:31 | 18.84049 | -21.65965 | 34961 ft | 464 kts | 18° |
| 2026-04-20 14:32 | 18.89616 | -21.62491 | 34960 ft | 463 kts | 18° |
| 2026-04-20 14:32 | 18.95179 | -21.59022 | 34955 ft | 464 kts | 18° |
| 2026-04-20 14:33 | 19.00740 | -21.55560 | 34960 ft | 464 kts | 18° |
| 2026-04-20 14:33 | 19.06267 | -21.52114 | 34959 ft | 464 kts | 18° |
| 2026-04-20 14:34 | 19.11835 | -21.48636 | 34957 ft | 464 kts | 18° |
| 2026-04-20 14:34 | 19.17387 | -21.45164 | 34985 ft | 462 kts | 17° |
| 2026-04-20 14:35 | 19.22920 | -21.41699 | 34957 ft | 461 kts | 17° |
| 2026-04-20 14:35 | 19.28407 | -21.38262 | 34956 ft | 460 kts | 17° |
| 2026-04-20 14:36 | 19.33922 | -21.34808 | 34955 ft | 460 kts | 17° |
| 2026-04-20 14:36 | 19.39420 | -21.31361 | 34956 ft | 459 kts | 17° |
| 2026-04-20 14:37 | 19.44926 | -21.27905 | 34958 ft | 459 kts | 17° |
| 2026-04-20 14:37 | 19.50417 | -21.24456 | 34986 ft | 459 kts | 17° |
| 2026-04-20 14:38 | 19.55877 | -21.21021 | 34957 ft | 458 kts | 17° |
| 2026-04-20 14:38 | 19.61356 | -21.17573 | 34959 ft | 457 kts | 17° |
| 2026-04-20 14:39 | 19.66821 | -21.14132 | 34950 ft | 457 kts | 17° |
| 2026-04-20 14:39 | 19.72297 | -21.10682 | 34954 ft | 456 kts | 17° |
| 2026-04-20 14:40 | 19.77755 | -21.07239 | 34953 ft | 456 kts | 17° |
| 2026-04-20 14:40 | 19.83174 | -21.03819 | 34953 ft | 456 kts | 17° |
| 2026-04-20 14:41 | 19.88627 | -21.00375 | 34962 ft | 456 kts | 17° |
| 2026-04-20 14:41 | 19.94078 | -20.96928 | 34941 ft | 456 kts | 17° |
| 2026-04-20 14:42 | 19.99508 | -20.93493 | 34960 ft | 456 kts | 17° |
| 2026-04-20 14:42 | 20.04956 | -20.90042 | 34933 ft | 456 kts | 17° |
| 2026-04-20 14:43 | 20.10420 | -20.86579 | 34962 ft | 456 kts | 17° |
| 2026-04-20 14:43 | 20.15874 | -20.83119 | 34939 ft | 456 kts | 17° |
| 2026-04-20 14:44 | 20.21296 | -20.79677 | 34957 ft | 456 kts | 17° |
| 2026-04-20 14:44 | 20.26770 | -20.76202 | 34951 ft | 457 kts | 17° |
| 2026-04-20 14:45 | 20.32233 | -20.72727 | 34948 ft | 458 kts | 17° |
| 2026-04-20 14:45 | 20.37695 | -20.69250 | 34951 ft | 458 kts | 17° |
| 2026-04-20 14:46 | 20.43152 | -20.65766 | 34946 ft | 458 kts | 17° |
| 2026-04-20 14:46 | 20.48612 | -20.62276 | 34948 ft | 458 kts | 17° |
| 2026-04-20 14:47 | 20.54079 | -20.58780 | 34966 ft | 458 kts | 17° |
| 2026-04-20 14:48 | 20.62278 | -20.53532 | 34952 ft | 458 kts | 17° |
| 2026-04-20 14:48 | 20.67736 | -20.50035 | 34951 ft | 458 kts | 17° |
| 2026-04-20 14:49 | 20.73204 | -20.46528 | 34962 ft | 458 kts | 17° |
| 2026-04-20 14:49 | 20.78682 | -20.43013 | 34948 ft | 460 kts | 17° |
| 2026-04-20 14:50 | 20.84170 | -20.39488 | 34952 ft | 460 kts | 17° |
| 2026-04-20 14:50 | 20.89624 | -20.35980 | 34947 ft | 461 kts | 17° |
| 2026-04-20 14:51 | 20.95147 | -20.32428 | 34949 ft | 462 kts | 17° |
| 2026-04-20 14:51 | 21.00662 | -20.28875 | 34948 ft | 463 kts | 17° |
| 2026-04-20 14:52 | 21.06186 | -20.25313 | 34944 ft | 463 kts | 17° |
| 2026-04-20 14:52 | 21.11665 | -20.21776 | 34945 ft | 463 kts | 17° |
| 2026-04-20 14:53 | 21.17177 | -20.18217 | 34942 ft | 463 kts | 17° |
| 2026-04-20 14:53 | 21.22697 | -20.14649 | 34948 ft | 463 kts | 18° |
| 2026-04-20 14:54 | 21.28224 | -20.11078 | 34942 ft | 467 kts | 18° |
| 2026-04-20 14:54 | 21.33798 | -20.07471 | 34939 ft | 468 kts | 18° |
| 2026-04-20 14:55 | 21.39385 | -20.03847 | 34937 ft | 468 kts | 18° |
| 2026-04-20 14:55 | 21.44956 | -20.00231 | 34936 ft | 468 kts | 18° |
| 2026-04-20 14:56 | 21.50500 | -19.96630 | 34938 ft | 468 kts | 18° |
| 2026-04-20 14:56 | 21.56074 | -19.93008 | 34959 ft | 468 kts | 19° |
| 2026-04-20 14:57 | 21.61657 | -19.89378 | 34940 ft | 469 kts | 19° |
| 2026-04-20 14:57 | 21.67255 | -19.85734 | 34938 ft | 470 kts | 19° |
| 2026-04-20 14:58 | 21.72841 | -19.82093 | 34936 ft | 470 kts | 19° |
| 2026-04-20 14:58 | 21.78432 | -19.78446 | 34942 ft | 470 kts | 19° |
| 2026-04-20 14:59 | 21.83993 | -19.74816 | 34938 ft | 470 kts | 19° |
| 2026-04-20 14:59 | 21.89630 | -19.71132 | 34951 ft | 470 kts | 20° |
| 2026-04-20 15:00 | 21.95186 | -19.67498 | 34939 ft | 470 kts | 20° |
| 2026-04-20 15:00 | 22.00782 | -19.63834 | 34939 ft | 470 kts | 20° |
| 2026-04-20 15:01 | 22.06341 | -19.60191 | 34939 ft | 470 kts | 20° |
| 2026-04-20 15:01 | 22.11927 | -19.56528 | 34937 ft | 470 kts | 20° |
| 2026-04-20 15:02 | 22.17518 | -19.52856 | 34936 ft | 470 kts | 20° |
| 2026-04-20 15:02 | 22.23115 | -19.49178 | 34969 ft | 469 kts | 21° |
| 2026-04-20 15:03 | 22.28685 | -19.45513 | 34936 ft | 470 kts | 22° |
| 2026-04-20 15:03 | 22.34263 | -19.41839 | 34936 ft | 469 kts | 22° |
| 2026-04-20 15:04 | 22.39845 | -19.38159 | 34934 ft | 469 kts | 22° |
| 2026-04-20 15:04 | 22.45389 | -19.34502 | 34933 ft | 469 kts | 22° |
| 2026-04-20 15:05 | 22.50978 | -19.30811 | 34934 ft | 469 kts | 22° |
| 2026-04-20 15:05 | 22.56517 | -19.27151 | 34963 ft | 469 kts | 23° |
| 2026-04-20 15:06 | 22.62078 | -19.23471 | 34934 ft | 468 kts | 23° |
| 2026-04-20 15:06 | 22.67629 | -19.19796 | 34934 ft | 468 kts | 23° |
| 2026-04-20 15:07 | 22.73187 | -19.16112 | 34931 ft | 468 kts | 23° |
| 2026-04-20 15:07 | 22.78756 | -19.12418 | 34931 ft | 468 kts | 23° |
| 2026-04-20 15:08 | 22.84311 | -19.08729 | 34921 ft | 468 kts | 24° |
| 2026-04-20 15:08 | 22.89860 | -19.05040 | 34953 ft | 468 kts | 25° |
| 2026-04-20 15:09 | 22.95374 | -19.01370 | 34932 ft | 468 kts | 25° |
| 2026-04-20 15:09 | 23.00934 | -18.97666 | 34923 ft | 467 kts | 25° |
| 2026-04-20 15:10 | 23.06465 | -18.93979 | 34926 ft | 467 kts | 25° |
| 2026-04-20 15:10 | 23.12014 | -18.90275 | 34925 ft | 467 kts | 25° |
| 2026-04-20 15:11 | 23.17560 | -18.86571 | 34928 ft | 467 kts | 25° |
| 2026-04-20 15:11 | 23.23102 | -18.82865 | 34947 ft | 467 kts | 25° |
| 2026-04-20 15:12 | 23.28645 | -18.79154 | 34921 ft | 467 kts | 25° |
| 2026-04-20 15:12 | 23.34155 | -18.75462 | 34923 ft | 467 kts | 25° |
| 2026-04-20 15:13 | 23.39688 | -18.71751 | 34922 ft | 467 kts | 25° |
| 2026-04-20 15:13 | 23.45227 | -18.68032 | 34921 ft | 467 kts | 25° |
| 2026-04-20 15:14 | 23.50765 | -18.64311 | 34920 ft | 467 kts | 25° |
| 2026-04-20 15:14 | 23.56285 | -18.60597 | 34921 ft | 467 kts | 25° |
| 2026-04-20 15:15 | 23.61812 | -18.56875 | 34923 ft | 467 kts | 25° |
| 2026-04-20 15:15 | 23.67355 | -18.53139 | 34922 ft | 467 kts | 26° |
| 2026-04-20 15:16 | 23.72894 | -18.49402 | 34923 ft | 467 kts | 26° |
| 2026-04-20 15:16 | 23.78437 | -18.45658 | 34922 ft | 467 kts | 26° |
| 2026-04-20 15:17 | 23.83030 | -18.42553 | 34915 ft | 468 kts | 26° |
| 2026-04-20 15:17 | 23.88560 | -18.38811 | 34939 ft | 467 kts | 26° |
| 2026-04-20 15:18 | 23.94993 | -18.34453 | 34920 ft | 468 kts | 26° |
| 2026-04-20 15:18 | 23.99639 | -18.31302 | 34920 ft | 468 kts | 26° |
| 2026-04-20 15:19 | 24.05172 | -18.27547 | 34919 ft | 468 kts | 26° |
| 2026-04-20 15:19 | 24.10672 | -18.23809 | 34917 ft | 468 kts | 26° |
| 2026-04-20 15:20 | 24.16203 | -18.20047 | 34913 ft | 468 kts | 26° |
| 2026-04-20 15:20 | 24.21743 | -18.16276 | 34934 ft | 468 kts | 26° |
| 2026-04-20 15:21 | 24.27235 | -18.12533 | 34916 ft | 468 kts | 26° |
| 2026-04-20 15:21 | 24.32766 | -18.08759 | 34917 ft | 468 kts | 27° |
| 2026-04-20 15:22 | 24.38307 | -18.04974 | 34915 ft | 469 kts | 27° |
| 2026-04-20 15:22 | 24.43844 | -18.01189 | 34913 ft | 469 kts | 27° |
| 2026-04-20 15:23 | 24.49388 | -17.97394 | 34913 ft | 469 kts | 27° |
| 2026-04-20 15:23 | 24.54922 | -17.93602 | 34931 ft | 469 kts | 27° |
| 2026-04-20 15:24 | 24.60454 | -17.89808 | 34912 ft | 468 kts | 27° |
| 2026-04-20 15:24 | 24.65955 | -17.86031 | 34908 ft | 468 kts | 27° |
| 2026-04-20 15:25 | 24.71479 | -17.82235 | 34910 ft | 468 kts | 27° |
| 2026-04-20 15:25 | 24.77010 | -17.78429 | 34909 ft | 469 kts | 27° |
| 2026-04-20 15:26 | 24.82556 | -17.74609 | 34905 ft | 469 kts | 27° |
| 2026-04-20 15:26 | 24.88039 | -17.70829 | 34924 ft | 469 kts | 27° |
| 2026-04-20 15:27 | 24.93574 | -17.67008 | 34894 ft | 469 kts | 27° |
| 2026-04-20 15:27 | 24.99094 | -17.63194 | 34914 ft | 469 kts | 27° |
| 2026-04-20 15:28 | 25.04631 | -17.59362 | 34910 ft | 469 kts | 27° |
| 2026-04-20 15:28 | 25.10166 | -17.55523 | 34896 ft | 469 kts | 27° |
| 2026-04-20 15:29 | 25.15645 | -17.51720 | 34912 ft | 469 kts | 27° |
| 2026-04-20 15:29 | 25.21179 | -17.47875 | 34904 ft | 469 kts | 27° |
| 2026-04-20 15:30 | 25.26719 | -17.44021 | 34900 ft | 470 kts | 28° |
| 2026-04-20 15:30 | 25.32248 | -17.40172 | 34903 ft | 470 kts | 28° |
| 2026-04-20 15:31 | 25.37781 | -17.36315 | 34900 ft | 470 kts | 28° |
| 2026-04-20 15:31 | 25.43279 | -17.32478 | 34896 ft | 470 kts | 28° |
| 2026-04-20 15:32 | 25.48826 | -17.28603 | 34893 ft | 470 kts | 28° |
| 2026-04-20 15:32 | 25.54356 | -17.24735 | 34904 ft | 470 kts | 28° |
| 2026-04-20 15:33 | 25.59886 | -17.20864 | 34897 ft | 471 kts | 28° |
| 2026-04-20 15:33 | 25.65423 | -17.16983 | 34895 ft | 471 kts | 28° |
| 2026-04-20 15:34 | 25.70937 | -17.13113 | 34893 ft | 471 kts | 28° |
| 2026-04-20 15:34 | 25.76483 | -17.09217 | 34890 ft | 471 kts | 28° |
| 2026-04-20 15:35 | 25.82021 | -17.05322 | 34892 ft | 471 kts | 28° |
| 2026-04-20 15:35 | 25.87557 | -17.01424 | 34893 ft | 472 kts | 28° |
| 2026-04-20 15:36 | 25.93106 | -16.97514 | 34888 ft | 472 kts | 28° |
| 2026-04-20 15:36 | 25.98628 | -16.93617 | 34891 ft | 472 kts | 28° |
| 2026-04-20 15:37 | 26.04176 | -16.89697 | 34887 ft | 473 kts | 28° |
| 2026-04-20 15:37 | 26.09728 | -16.85771 | 34885 ft | 473 kts | 28° |
| 2026-04-20 15:38 | 26.15285 | -16.81836 | 34881 ft | 473 kts | 28° |
| 2026-04-20 15:38 | 26.20844 | -16.77897 | 34887 ft | 474 kts | 27° |
| 2026-04-20 15:39 | 26.26379 | -16.73979 | 34876 ft | 475 kts | 27° |
| 2026-04-20 15:39 | 26.31944 | -16.70037 | 34875 ft | 475 kts | 27° |
| 2026-04-20 15:40 | 26.37515 | -16.66087 | 34877 ft | 474 kts | 28° |
| 2026-04-20 15:40 | 26.43086 | -16.62131 | 34868 ft | 474 kts | 28° |
| 2026-04-20 15:41 | 26.48646 | -16.58178 | 34875 ft | 474 kts | 28° |
| 2026-04-20 15:41 | 26.54216 | -16.54215 | 34874 ft | 475 kts | 28° |
| 2026-04-20 15:42 | 26.59778 | -16.50252 | 34869 ft | 476 kts | 28° |
| 2026-04-20 15:42 | 26.65366 | -16.46265 | 34862 ft | 476 kts | 28° |
| 2026-04-20 15:43 | 26.70950 | -16.42277 | 34884 ft | 476 kts | 28° |
| 2026-04-20 15:43 | 26.76535 | -16.38283 | 34857 ft | 476 kts | 28° |
| 2026-04-20 15:44 | 26.82068 | -16.34322 | 34879 ft | 475 kts | 28° |
| 2026-04-20 15:44 | 26.87650 | -16.30321 | 34875 ft | 475 kts | 28° |
| 2026-04-20 15:45 | 26.93209 | -16.26328 | 34854 ft | 475 kts | 28° |
| 2026-04-20 15:45 | 26.98794 | -16.22307 | 34881 ft | 475 kts | 28° |
| 2026-04-20 15:46 | 27.04323 | -16.18321 | 34854 ft | 475 kts | 28° |
| 2026-04-20 15:46 | 27.09920 | -16.14281 | 34855 ft | 475 kts | 28° |
| 2026-04-20 15:47 | 27.15447 | -16.10288 | 34858 ft | 476 kts | 28° |
| 2026-04-20 15:47 | 27.21037 | -16.06245 | 34859 ft | 477 kts | 28° |
| 2026-04-20 15:48 | 27.26620 | -16.02201 | 34859 ft | 477 kts | 28° |
| 2026-04-20 15:48 | 27.32166 | -15.98179 | 34857 ft | 477 kts | 28° |
| 2026-04-20 15:49 | 27.37750 | -15.94125 | 34856 ft | 478 kts | 28° |
| 2026-04-20 15:49 | 27.43330 | -15.90069 | 34857 ft | 478 kts | 28° |
| 2026-04-20 15:50 | 27.48926 | -15.85997 | 34858 ft | 479 kts | 28° |
| 2026-04-20 15:50 | 27.54535 | -15.81910 | 34856 ft | 479 kts | 28° |
| 2026-04-20 15:51 | 27.60142 | -15.77819 | 34859 ft | 480 kts | 28° |
| 2026-04-20 15:51 | 27.65708 | -15.73753 | 34857 ft | 480 kts | 28° |
| 2026-04-20 15:52 | 27.71309 | -15.69657 | 34856 ft | 480 kts | 28° |
| 2026-04-20 15:52 | 27.76913 | -15.65553 | 34876 ft | 480 kts | 28° |
| 2026-04-20 15:53 | 27.85336 | -15.59378 | 34859 ft | 482 kts | 28° |
| 2026-04-20 15:53 | 27.90979 | -15.55233 | 34860 ft | 482 kts | 28° |
| 2026-04-20 15:54 | 27.96600 | -15.51098 | 34856 ft | 483 kts | 28° |
| 2026-04-20 15:54 | 28.02247 | -15.46940 | 34858 ft | 483 kts | 28° |
| 2026-04-20 15:55 | 28.07846 | -15.42811 | 34885 ft | 483 kts | 28° |
| 2026-04-20 15:55 | 28.13472 | -15.38642 | 34865 ft | 485 kts | 28° |
| 2026-04-20 15:56 | 28.19125 | -15.34440 | 34859 ft | 486 kts | 28° |
| 2026-04-20 15:56 | 28.24771 | -15.30237 | 34859 ft | 486 kts | 28° |
| 2026-04-20 15:57 | 28.30408 | -15.26037 | 34857 ft | 486 kts | 28° |
| 2026-04-20 15:57 | 28.36059 | -15.21822 | 34856 ft | 486 kts | 28° |
| 2026-04-20 15:58 | 28.41722 | -15.17593 | 34852 ft | 487 kts | 28° |
| 2026-04-20 15:58 | 28.47381 | -15.13361 | 34852 ft | 487 kts | 28° |
| 2026-04-20 15:59 | 28.53046 | -15.09119 | 34847 ft | 487 kts | 28° |
| 2026-04-20 15:59 | 28.58706 | -15.04876 | 34849 ft | 487 kts | 28° |
| 2026-04-20 16:00 | 28.64334 | -15.00650 | 34847 ft | 487 kts | 28° |
| 2026-04-20 16:00 | 28.69995 | -14.96395 | 34869 ft | 488 kts | 28° |
| 2026-04-20 16:01 | 28.75670 | -14.92124 | 34843 ft | 488 kts | 29° |
| 2026-04-20 16:01 | 28.81335 | -14.87854 | 34843 ft | 489 kts | 29° |
| 2026-04-20 16:02 | 28.87009 | -14.83571 | 34844 ft | 489 kts | 29° |
| 2026-04-20 16:02 | 28.92687 | -14.79280 | 34841 ft | 489 kts | 29° |
| 2026-04-20 16:03 | 28.98372 | -14.74979 | 34841 ft | 489 kts | 29° |
| 2026-04-20 16:03 | 29.04043 | -14.70681 | 34839 ft | 490 kts | 29° |
| 2026-04-20 16:04 | 29.09746 | -14.66355 | 34842 ft | 491 kts | 29° |
| 2026-04-20 16:04 | 29.15403 | -14.62057 | 34835 ft | 491 kts | 29° |
| 2026-04-20 16:05 | 29.21100 | -14.57722 | 34836 ft | 491 kts | 29° |
| 2026-04-20 16:05 | 29.25824 | -14.54123 | 34835 ft | 491 kts | 29° |
| 2026-04-20 16:06 | 29.32438 | -14.49079 | 34853 ft | 491 kts | 29° |
| 2026-04-20 16:06 | 29.37222 | -14.45424 | 34832 ft | 492 kts | 29° |
| 2026-04-20 16:07 | 29.42881 | -14.41096 | 34834 ft | 493 kts | 30° |
| 2026-04-20 16:07 | 29.48591 | -14.36723 | 34832 ft | 493 kts | 30° |
| 2026-04-20 16:08 | 29.54303 | -14.32343 | 34830 ft | 493 kts | 30° |
| 2026-04-20 16:08 | 29.60003 | -14.27965 | 34831 ft | 493 kts | 30° |
| 2026-04-20 16:09 | 29.65718 | -14.23571 | 34829 ft | 494 kts | 30° |
| 2026-04-20 16:09 | 29.71442 | -14.19163 | 34827 ft | 495 kts | 30° |
| 2026-04-20 16:10 | 29.77114 | -14.14789 | 34824 ft | 495 kts | 30° |
| 2026-04-20 16:10 | 29.82834 | -14.10372 | 34825 ft | 495 kts | 30° |
| 2026-04-20 16:11 | 29.88556 | -14.05946 | 34823 ft | 495 kts | 30° |
| 2026-04-20 16:11 | 29.94277 | -14.01516 | 34824 ft | 495 kts | 30° |
| 2026-04-20 16:12 | 29.99959 | -13.97110 | 34821 ft | 495 kts | 30° |
| 2026-04-20 16:12 | 30.05658 | -13.92684 | 34822 ft | 495 kts | 30° |
| 2026-04-20 16:13 | 30.11378 | -13.88236 | 34821 ft | 495 kts | 30° |
| 2026-04-20 16:13 | 30.17093 | -13.83786 | 34821 ft | 494 kts | 30° |
| 2026-04-20 16:14 | 30.22797 | -13.79337 | 34843 ft | 494 kts | 30° |
| 2026-04-20 16:14 | 30.28475 | -13.74903 | 34824 ft | 496 kts | 30° |
| 2026-04-20 16:15 | 30.34195 | -13.70429 | 34819 ft | 496 kts | 30° |
| 2026-04-20 16:15 | 30.39916 | -13.65948 | 34821 ft | 496 kts | 30° |
| 2026-04-20 16:16 | 30.45641 | -13.61457 | 34813 ft | 496 kts | 30° |
| 2026-04-20 16:16 | 30.51400 | -13.57147 | 34819 ft | 493 kts | 25° |
| 2026-04-20 16:17 | 30.57414 | -13.53329 | 34831 ft | 493 kts | 24° |
| 2026-04-20 16:17 | 30.63495 | -13.49625 | 34803 ft | 494 kts | 23° |
| 2026-04-20 16:18 | 30.69595 | -13.45936 | 34813 ft | 493 kts | 23° |
| 2026-04-20 16:18 | 30.75634 | -13.42265 | 34737 ft | 480 kts | 23° |
| 2026-04-20 16:19 | 30.78569 | -13.40510 | 34434 ft | 470 kts | 22° |
| 2026-04-20 16:19 | 30.81506 | -13.38876 | 33988 ft | 464 kts | 19° |
| 2026-04-20 16:19 | 30.84478 | -13.37429 | 33309 ft | 462 kts | 15° |
| 2026-04-20 16:19 | 30.87535 | -13.36228 | 32382 ft | 464 kts | 11° |
| 2026-04-20 16:20 | 30.90702 | -13.35352 | 31287 ft | 470 kts | 5° |
| 2026-04-20 16:20 | 30.93923 | -13.34893 | 30032 ft | 478 kts | 358° |
| 2026-04-20 16:20 | 30.97284 | -13.34929 | 28351 ft | 489 kts | 351° |
| 2026-04-20 16:20 | 31.00678 | -13.35564 | 26470 ft | 501 kts | 341° |
| 2026-04-20 16:21 | 31.04010 | -13.36922 | 24842 ft | 509 kts | 329° |
| 2026-04-20 16:21 | 31.06962 | -13.39041 | 24291 ft | 488 kts | 317° |
| 2026-04-20 16:21 | 31.09334 | -13.41760 | 23594 ft | 470 kts | 303° |
| 2026-04-20 16:21 | 31.10941 | -13.45009 | 22616 ft | 456 kts | 286° |
| 2026-04-20 16:22 | 31.11568 | -13.48567 | 21421 ft | 445 kts | 266° |
| 2026-04-20 16:22 | 31.11047 | -13.52071 | 20093 ft | 438 kts | 244° |
| 2026-04-20 16:22 | 31.09287 | -13.54787 | 19458 ft | 421 kts | 218° |
| 2026-04-20 16:22 | 31.06680 | -13.56206 | 18363 ft | 420 kts | 191° |
| 2026-04-20 16:23 | 31.03815 | -13.55580 | 17436 ft | 429 kts | 154° |
| 2026-04-20 16:23 | 31.01804 | -13.53009 | 16411 ft | 448 kts | 115° |
| 2026-04-20 16:23 | 31.01644 | -13.49392 | 15389 ft | 469 kts | 72° |
| 2026-04-20 16:23 | 31.03607 | -13.46386 | 14361 ft | 479 kts | 29° |
| 2026-04-20 16:24 | 31.06776 | -13.45660 | 13281 ft | 469 kts | 341° |
| 2026-04-20 16:24 | 31.09237 | -13.47742 | 12209 ft | 427 kts | 288° |
| 2026-04-20 16:24 | 31.09112 | -13.50784 | 11115 ft | 376 kts | 225° |
| 2026-04-20 16:24 | 31.06791 | -13.51330 | 9964 ft | 376 kts | 149° |
| 2026-04-20 16:25 | 31.06261 | -13.48461 | 8739 ft | 436 kts | 60° |
| 2026-04-20 16:25 | 31.08984 | -13.47586 | 7395 ft | 431 kts | 320° |
| 2026-04-20 16:25 | 31.09494 | -13.50236 | 6029 ft | 351 kts | 218° |
| 2026-04-20 16:25 | 31.07468 | -13.49713 | 4616 ft | 378 kts | 114° |
| 2026-04-20 16:26 | 31.08687 | -13.47253 | 2824 ft | 415 kts | 0° |
| 2026-04-20 16:26 | 31.10097 | -13.49336 | 1345 ft | 377 kts | 239° |
| 2026-04-20 16:26 | 31.08102 | -13.49378 | 724 ft | 360 kts | 117° |
| 2026-04-20 16:26 | 31.08356 | -13.47110 | 19 ft | 237 kts | 72° |
| 2026-04-20 16:27 | 31.08928 | -13.45685 | 9 ft | 153 kts | 37° |
| 2026-04-20 16:27 | 31.09375 | -13.45335 | 7 ft | 0 kts | 358° |
| 2026-04-20 16:30 | 31.09375 | -13.45336 | 7 ft | 0 kts | 358° |
| 2026-04-20 16:32 | 31.09374 | -13.45336 | 7 ft | 0 kts | 357° |
| 2026-04-20 16:34 | 31.09374 | -13.45337 | 7 ft | 0 kts | 356° |
| 2026-04-20 16:42 | 31.09373 | -13.45337 | 10 ft | 0 kts | 354° |
| 2026-04-20 16:51 | 31.09373 | -13.45336 | 10 ft | 0 kts | 355° |
| 2026-04-20 16:53 | 31.09372 | -13.45336 | 10 ft | 0 kts | 355° |
| 2026-04-20 17:05 | 31.09371 | -13.45336 | 7 ft | 0 kts | 354° |
| 2026-04-20 17:07 | 31.09371 | -13.45337 | 7 ft | 0 kts | 354° |
| 2026-04-20 17:08 | 31.09371 | -13.45336 | 7 ft | 0 kts | 354° |
| 2026-04-20 17:08 | 31.09371 | -13.45337 | 7 ft | 0 kts | 354° |
| 2026-04-20 17:16 | 31.09370 | -13.45337 | 7 ft | 0 kts | 352° |